Time;durP1;ratioP1;P1;durP2;ratioP2;P2;SDS_P1;SDS_P2;PMS_P1;PMS_P2;Temp;Humidity;BMP_temperature;BMP_pressure;BME280_temperature;BME280_humidity;BME280_pressure;Samples;Min_cycle;Max_cycle;Signal;HPM_P1;HPM_P2
2023/10/20 00:01:00;;;;;;;6.85;1.90;;;14.70;99.90;;;;;;6279234;28;20100;-75
2023/10/20 00:04:03;;;;;;;4.82;2.67;;;14.70;99.90;;;;;;6279477;28;20053;-76
2023/10/20 00:07:04;;;;;;;2.83;2.60;;;14.70;99.90;;;;;;6295410;28;20095;-76
2023/10/20 00:10:09;;;;;;;3.45;2.70;;;14.70;99.90;;;;;;6283429;28;20053;-76
2023/10/20 00:13:12;;;;;;;3.25;2.47;;;14.70;99.90;;;;;;6280802;28;20049;-76
2023/10/20 00:16:13;;;;;;;3.50;3.20;;;14.70;99.90;;;;;;6276514;28;20060;-76
2023/10/20 00:19:17;;;;;;;2.58;2.08;;;14.70;99.90;;;;;;6279226;28;20049;-76
2023/10/20 00:22:19;;;;;;;5.28;3.03;;;14.60;99.90;;;;;;6281902;28;20118;-76
2023/10/20 00:25:21;;;;;;;3.53;3.22;;;14.60;99.90;;;;;;6279915;28;20060;-77
2023/10/20 00:28:24;;;;;;;2.90;2.70;;;14.60;99.90;;;;;;6270414;28;20063;-76
2023/10/20 00:31:25;;;;;;;6.25;2.97;;;14.60;99.90;;;;;;6278710;28;20044;-76
2023/10/20 00:34:27;;;;;;;4.38;2.55;;;14.60;99.90;;;;;;6279225;28;20075;-76
2023/10/20 00:37:29;;;;;;;5.10;2.50;;;14.50;99.90;;;;;;6253581;28;20414;-77
2023/10/20 00:40:31;;;;;;;5.07;3.17;;;14.50;99.90;;;;;;6253637;28;20730;-76
2023/10/20 00:43:37;;;;;;;3.60;2.60;;;14.50;99.90;;;;;;6253310;28;20061;-76
2023/10/20 00:46:39;;;;;;;4.20;2.97;;;14.50;99.90;;;;;;6258815;28;20120;-76
2023/10/20 00:49:41;;;;;;;3.65;3.13;;;14.50;99.90;;;;;;6248464;28;20053;-76
2023/10/20 00:52:46;;;;;;;3.17;2.70;;;14.50;99.90;;;;;;6244858;28;20045;-76
2023/10/20 00:55:48;;;;;;;3.03;2.72;;;14.50;99.90;;;;;;6245354;28;20047;-76
2023/10/20 00:58:51;;;;;;;4.35;2.67;;;14.50;99.90;;;;;;6253072;28;20420;-76
2023/10/20 01:01:54;;;;;;;4.53;3.65;;;14.50;99.90;;;;;;6253974;28;20049;-76
2023/10/20 01:04:55;;;;;;;9.38;3.20;;;14.50;99.90;;;;;;6253300;28;20041;-76
2023/10/20 01:07:58;;;;;;;3.13;2.60;;;14.50;99.90;;;;;;6244865;28;20506;-76
2023/10/20 01:11:00;;;;;;;5.95;2.80;;;14.50;99.90;;;;;;6244953;28;20518;-76
2023/10/20 01:14:03;;;;;;;4.97;2.75;;;14.50;99.90;;;;;;6253558;28;20434;-76
2023/10/20 01:17:05;;;;;;;2.90;2.45;;;14.50;99.90;;;;;;6261918;28;20045;-76
2023/10/20 01:20:07;;;;;;;4.32;3.13;;;14.50;99.90;;;;;;6281050;28;20140;-77
2023/10/20 01:23:09;;;;;;;9.15;2.50;;;14.50;99.90;;;;;;6255470;28;20050;-76
2023/10/20 01:26:12;;;;;;;3.20;2.35;;;14.50;99.90;;;;;;6252277;28;20053;-76
2023/10/20 01:29:14;;;;;;;3.50;3.03;;;14.50;99.90;;;;;;6252556;28;20045;-76
2023/10/20 01:32:16;;;;;;;4.78;3.33;;;14.50;99.90;;;;;;6263302;28;20056;-77
2023/10/20 01:35:17;;;;;;;3.20;2.95;;;14.50;99.90;;;;;;6269516;28;20051;-76
2023/10/20 01:38:19;;;;;;;2.75;2.35;;;14.50;99.90;;;;;;6269471;28;20414;-76
2023/10/20 01:41:23;;;;;;;5.75;2.72;;;14.50;99.90;;;;;;6276312;28;20403;-76
2023/10/20 01:44:25;;;;;;;3.40;2.95;;;14.50;99.90;;;;;;6274560;28;20045;-76
2023/10/20 01:47:27;;;;;;;3.60;2.90;;;14.50;99.90;;;;;;6271948;28;20051;-76
2023/10/20 01:50:29;;;;;;;2.92;2.60;;;14.50;99.90;;;;;;6278143;28;20040;-75
2023/10/20 01:53:30;;;;;;;2.88;2.58;;;14.50;99.90;;;;;;6274536;28;20053;-76
2023/10/20 01:56:34;;;;;;;5.43;2.53;;;14.50;99.90;;;;;;6281373;28;20052;-75
2023/10/20 01:59:35;;;;;;;2.40;1.92;;;14.50;99.90;;;;;;6272893;28;20049;-76
2023/10/20 02:02:37;;;;;;;4.78;2.20;;;14.60;99.90;;;;;;6269003;28;20049;-76
2023/10/20 02:05:39;;;;;;;4.63;3.63;;;14.50;99.90;;;;;;6277862;28;20051;-75
2023/10/20 02:08:40;;;;;;;4.57;3.20;;;14.50;99.90;;;;;;6277039;28;20043;-75
2023/10/20 02:11:43;;;;;;;4.80;3.28;;;14.50;99.90;;;;;;6282070;28;20047;-76
2023/10/20 02:14:45;;;;;;;6.00;3.08;;;14.50;99.90;;;;;;6281721;28;20041;-75
2023/10/20 02:17:47;;;;;;;3.63;3.03;;;14.50;99.90;;;;;;6289514;28;20611;-75
2023/10/20 02:20:57;;;;;;;3.25;2.25;;;14.50;99.90;;;;;;6281378;28;20402;-76
2023/10/20 02:23:59;;;;;;;5.50;3.55;;;14.50;99.90;;;;;;6289950;28;20048;-75
2023/10/20 02:27:02;;;;;;;4.25;2.65;;;14.50;99.90;;;;;;6280930;28;20421;-75
2023/10/20 02:30:05;;;;;;;5.07;3.60;;;14.40;99.90;;;;;;6277174;28;20052;-76
2023/10/20 02:33:07;;;;;;;5.90;3.08;;;14.40;99.90;;;;;;6290220;28;20479;-76
2023/10/20 02:36:08;;;;;;;5.75;3.45;;;14.40;99.90;;;;;;6281519;28;20401;-75
2023/10/20 02:39:10;;;;;;;4.57;3.25;;;14.40;99.90;;;;;;6289196;28;20041;-75
2023/10/20 02:42:13;;;;;;;3.40;2.50;;;14.40;99.90;;;;;;6281280;28;20053;-75
2023/10/20 02:45:15;;;;;;;4.70;3.30;;;14.40;99.90;;;;;;6280794;28;20040;-75
2023/10/20 02:48:16;;;;;;;4.25;3.42;;;14.40;99.90;;;;;;6273815;28;20101;-76
2023/10/20 02:51:18;;;;;;;5.95;3.55;;;14.40;99.90;;;;;;6287723;28;20044;-76
2023/10/20 02:54:20;;;;;;;6.35;3.30;;;14.30;99.90;;;;;;6281378;28;20048;-76
2023/10/20 02:57:23;;;;;;;6.85;3.85;;;14.30;99.90;;;;;;6274196;28;20536;-76
2023/10/20 03:00:25;;;;;;;4.45;3.45;;;14.30;99.90;;;;;;6278164;28;20051;-76
2023/10/20 03:03:27;;;;;;;4.65;2.97;;;14.30;99.90;;;;;;6283323;28;20049;-76
2023/10/20 03:06:28;;;;;;;4.18;3.55;;;14.30;99.90;;;;;;6286173;28;20071;-76
2023/10/20 03:09:30;;;;;;;2.88;2.47;;;14.30;99.90;;;;;;6258985;28;20045;-76
2023/10/20 03:12:33;;;;;;;4.25;2.75;;;14.30;99.90;;;;;;6266004;28;20045;-76
2023/10/20 03:15:35;;;;;;;4.57;2.97;;;14.30;99.90;;;;;;6255612;28;20120;-76
2023/10/20 03:18:37;;;;;;;5.53;2.95;;;14.30;99.90;;;;;;6248532;28;20052;-76
2023/10/20 03:21:39;;;;;;;3.55;2.92;;;14.30;99.90;;;;;;6260993;28;20052;-76
2023/10/20 03:24:41;;;;;;;4.88;2.50;;;14.30;99.90;;;;;;6259793;28;20630;-76
2023/10/20 03:27:44;;;;;;;4.32;2.38;;;14.30;99.90;;;;;;6251331;28;20037;-76
2023/10/20 03:30:46;;;;;;;5.32;2.25;;;14.30;99.90;;;;;;6250273;28;20498;-75
2023/10/20 03:33:48;;;;;;;4.18;2.30;;;14.30;99.90;;;;;;6255770;28;20073;-76
2023/10/20 03:36:51;;;;;;;3.22;2.53;;;14.30;99.90;;;;;;6254838;28;20042;-76
2023/10/20 03:39:53;;;;;;;4.00;3.10;;;14.40;99.90;;;;;;6261349;28;20049;-76
2023/10/20 03:42:57;;;;;;;3.38;2.40;;;14.40;99.90;;;;;;6266357;28;20131;-76
2023/10/20 03:46:01;;;;;;;4.53;2.95;;;14.40;99.90;;;;;;6248447;28;20056;-75
2023/10/20 03:49:04;;;;;;;3.78;2.80;;;14.40;99.90;;;;;;6254786;28;20045;-75
2023/10/20 03:52:06;;;;;;;3.55;2.63;;;14.40;99.90;;;;;;6246761;28;20068;-76
2023/10/20 03:55:13;;;;;;;4.70;3.42;;;14.40;99.90;;;;;;6254439;28;20041;-76
2023/10/20 03:58:16;;;;;;;2.97;2.50;;;14.40;99.90;;;;;;6254914;28;20055;-77
2023/10/20 04:01:18;;;;;;;4.68;2.85;;;14.30;99.90;;;;;;6254388;28;20153;-76
2023/10/20 04:04:20;;;;;;;3.80;2.70;;;14.30;99.90;;;;;;6254618;28;20049;-76
2023/10/20 04:07:24;;;;;;;9.32;3.33;;;14.30;99.90;;;;;;6245884;28;20045;-76
2023/10/20 04:10:26;;;;;;;4.07;2.72;;;14.30;99.90;;;;;;6255733;28;20053;-76
2023/10/20 04:13:29;;;;;;;3.28;2.70;;;14.30;99.90;;;;;;6259960;28;20060;-76
2023/10/20 04:16:31;;;;;;;3.78;2.15;;;14.30;99.90;;;;;;6246076;28;20518;-76
2023/10/20 04:19:32;;;;;;;4.20;2.47;;;14.30;99.90;;;;;;6245916;28;20049;-76
2023/10/20 04:22:35;;;;;;;2.33;2.08;;;14.40;99.90;;;;;;6262704;28;20072;-76
2023/10/20 04:25:39;;;;;;;4.47;2.47;;;14.40;99.90;;;;;;6249755;28;20037;-76
2023/10/20 04:28:42;;;;;;;3.45;1.90;;;14.40;99.90;;;;;;6249693;28;20521;-76
2023/10/20 04:42:01;;;;;;;3.78;1.98;;;14.30;99.90;;;;;;6250080;28;20041;-76
2023/10/20 04:49:00;;;;;;;3.03;2.22;;;14.30;99.90;;;;;;6262426;28;19920;-76
2023/10/20 04:52:05;;;;;;;3.42;2.30;;;14.30;99.90;;;;;;6269965;28;20465;-75
2023/10/20 04:58:34;;;;;;;5.53;2.20;;;14.30;99.90;;;;;;6263073;28;20099;-76
2023/10/20 05:01:43;;;;;;;3.55;2.72;;;14.30;99.90;;;;;;6266897;28;20122;-75
2023/10/20 05:04:46;;;;;;;3.15;2.85;;;14.30;99.90;;;;;;6276231;28;20044;-76
2023/10/20 05:07:50;;;;;;;2.90;2.33;;;14.30;99.90;;;;;;6286062;28;20044;-76
2023/10/20 05:10:54;;;;;;;3.90;2.50;;;14.30;99.90;;;;;;6281361;28;20092;-75
2023/10/20 05:13:55;;;;;;;3.45;2.35;;;14.30;99.90;;;;;;6275848;28;20052;-76
2023/10/20 05:16:58;;;;;;;2.72;2.28;;;14.30;99.90;;;;;;6269518;28;20045;-76
2023/10/20 05:20:00;;;;;;;4.30;3.42;;;14.30;99.90;;;;;;6275892;28;20048;-76
2023/10/20 05:23:02;;;;;;;3.90;3.50;;;14.30;99.90;;;;;;6280090;28;20517;-76
2023/10/20 05:26:03;;;;;;;3.28;2.58;;;14.30;99.90;;;;;;6276616;28;20041;-76
2023/10/20 05:29:07;;;;;;;8.93;2.90;;;14.30;99.90;;;;;;6277496;28;20056;-76
2023/10/20 05:32:10;;;;;;;5.05;2.90;;;14.20;99.90;;;;;;6270360;28;20461;-76
2023/10/20 05:35:12;;;;;;;4.43;3.80;;;14.20;99.90;;;;;;6285587;28;20075;-76
2023/10/20 05:38:14;;;;;;;5.18;3.72;;;14.20;99.90;;;;;;6278431;28;20057;-76
2023/10/20 05:41:15;;;;;;;7.75;3.88;;;14.20;99.90;;;;;;6277826;28;20054;-75
2023/10/20 05:44:22;;;;;;;6.38;2.72;;;14.20;99.90;;;;;;6279229;28;20045;-75
2023/10/20 05:47:25;;;;;;;5.05;3.38;;;14.20;99.90;;;;;;6290618;28;20051;-75
2023/10/20 05:50:26;;;;;;;18.58;4.10;;;14.20;99.90;;;;;;6289395;28;20505;-77
2023/10/20 05:53:28;;;;;;;6.18;4.18;;;14.10;99.90;;;;;;6282378;28;20048;-79
2023/10/20 05:56:30;;;;;;;8.35;4.07;;;14.10;99.90;;;;;;6284019;28;20585;-76
2023/10/20 05:59:32;;;;;;;3.83;3.33;;;14.10;99.90;;;;;;6288445;28;20050;-76
2023/10/20 06:02:35;;;;;;;6.30;4.50;;;14.00;99.90;;;;;;6290318;28;20505;-76
2023/10/20 06:05:38;;;;;;;5.60;4.80;;;14.00;99.90;;;;;;6295437;28;20049;-76
2023/10/20 06:08:39;;;;;;;5.68;4.43;;;14.00;99.90;;;;;;6282370;28;20114;-76
2023/10/20 06:11:42;;;;;;;7.07;3.63;;;13.90;99.90;;;;;;6285283;28;20401;-77
2023/10/20 06:14:43;;;;;;;5.25;3.75;;;13.90;99.90;;;;;;6286150;28;20051;-77
2023/10/20 06:17:46;;;;;;;5.57;3.67;;;13.90;99.90;;;;;;6291002;28;20067;-78
2023/10/20 06:20:48;;;;;;;6.05;4.53;;;13.90;99.90;;;;;;6284747;28;20049;-76
2023/10/20 06:23:50;;;;;;;5.63;4.15;;;13.90;99.90;;;;;;6294220;28;20048;-76
2023/10/20 06:26:52;;;;;;;5.80;4.45;;;13.90;99.90;;;;;;6293302;28;20418;-76
2023/10/20 06:29:58;;;;;;;5.22;4.47;;;13.90;99.90;;;;;;6290249;28;20517;-75
2023/10/20 06:33:16;;;;;;;6.60;4.50;;;13.90;99.90;;;;;;6281604;28;20051;-78
2023/10/20 06:36:24;;;;;;;;;;;13.90;99.90;;;;;;6281706;28;20498;-76
2023/10/20 06:39:26;;;;;;;4.72;3.58;;;13.90;99.90;;;;;;6279122;28;19920;-76
2023/10/20 06:42:28;;;;;;;5.07;3.78;;;13.90;99.90;;;;;;6282070;28;20044;-76
2023/10/20 06:45:31;;;;;;;7.55;3.95;;;13.90;99.90;;;;;;6273447;28;20049;-75
2023/10/20 06:48:34;;;;;;;6.88;5.03;;;13.90;99.90;;;;;;6272956;28;20118;-76
2023/10/20 06:51:37;;;;;;;6.93;4.40;;;13.90;99.90;;;;;;6246045;28;20146;-76
2023/10/20 06:54:38;;;;;;;12.23;5.97;;;13.90;99.90;;;;;;6272255;28;20045;-76
2023/10/20 06:57:41;;;;;;;7.40;5.45;;;13.90;99.90;;;;;;6279943;28;20524;-76
2023/10/20 07:00:44;;;;;;;4.97;4.10;;;13.90;99.90;;;;;;6286633;28;20044;-76
2023/10/20 07:03:47;;;;;;;10.30;5.43;;;13.90;99.90;;;;;;6299575;28;20102;-76
2023/10/20 07:06:49;;;;;;;10.48;4.78;;;14.00;99.90;;;;;;6278278;28;22185;-76
2023/10/20 07:09:50;;;;;;;8.05;5.30;;;14.00;99.90;;;;;;6277375;28;20040;-78
2023/10/20 07:12:52;;;;;;;6.88;4.30;;;14.00;99.90;;;;;;6270331;28;20045;-78
2023/10/20 07:15:56;;;;;;;11.23;5.68;;;14.00;99.90;;;;;;6293456;28;20040;-78
2023/10/20 07:19:00;;;;;;;7.47;3.55;;;14.00;99.90;;;;;;6281392;28;20052;-75
2023/10/20 07:22:02;;;;;;;5.68;4.50;;;14.10;99.90;;;;;;6272603;28;20129;-76
2023/10/20 07:25:05;;;;;;;8.30;5.03;;;14.10;99.90;;;;;;6272156;28;20128;-77
2023/10/20 07:28:07;;;;;;;6.10;4.07;;;14.10;99.90;;;;;;6276546;28;20051;-79
2023/10/20 07:31:12;;;;;;;5.72;3.60;;;14.10;99.90;;;;;;6282359;28;20049;-75
2023/10/20 07:34:16;;;;;;;5.30;4.10;;;14.20;99.90;;;;;;6280499;28;20501;-77
2023/10/20 07:37:17;;;;;;;7.53;4.07;;;14.20;99.90;;;;;;6271408;28;20413;-77
2023/10/20 07:40:19;;;;;;;5.05;4.28;;;14.20;99.90;;;;;;6270946;28;20409;-78
2023/10/20 07:43:21;;;;;;;7.95;4.00;;;14.30;99.90;;;;;;6270925;28;20052;-78
2023/10/20 07:46:23;;;;;;;6.10;4.50;;;14.30;99.90;;;;;;6270444;28;20425;-78
2023/10/20 07:49:26;;;;;;;8.50;3.88;;;14.30;99.90;;;;;;6279515;28;20462;-75
2023/10/20 07:52:28;;;;;;;4.43;3.75;;;14.30;99.90;;;;;;6271246;28;20051;-76
2023/10/20 07:55:30;;;;;;;5.10;3.13;;;14.30;99.90;;;;;;6271579;28;20048;-77
2023/10/20 07:58:33;;;;;;;6.13;4.22;;;14.40;99.90;;;;;;6271728;28;20049;-77
2023/10/20 08:01:35;;;;;;;4.90;3.17;;;14.40;99.90;;;;;;6288581;28;20056;-78
2023/10/20 08:04:40;;;;;;;4.18;3.78;;;14.50;99.90;;;;;;6273477;28;20045;-77
2023/10/20 08:07:42;;;;;;;5.30;4.13;;;14.50;99.90;;;;;;6293151;28;20047;-79
2023/10/20 08:10:43;;;;;;;5.35;3.80;;;14.50;99.90;;;;;;6282690;28;20055;-80
2023/10/20 08:13:50;;;;;;;4.40;3.92;;;14.50;99.90;;;;;;6277381;28;20059;-77
2023/10/20 08:16:52;;;;;;;6.78;4.10;;;14.60;99.90;;;;;;6271608;28;20051;-80
2023/10/20 08:19:55;;;;;;;7.10;5.25;;;14.60;99.90;;;;;;6275438;28;20637;-77
2023/10/20 08:22:57;;;;;;;5.28;4.30;;;14.70;99.90;;;;;;6283731;28;20045;-77
2023/10/20 08:25:58;;;;;;;6.80;3.83;;;14.70;99.90;;;;;;6284707;28;20115;-77
2023/10/20 08:29:00;;;;;;;6.13;4.43;;;14.70;99.90;;;;;;6295478;28;20044;-78
2023/10/20 08:32:03;;;;;;;4.78;3.50;;;14.70;99.90;;;;;;6271810;28;20056;-77
2023/10/20 08:35:09;;;;;;;4.45;3.58;;;14.70;99.90;;;;;;6271060;28;20045;-77
2023/10/20 08:38:11;;;;;;;7.53;5.90;;;14.70;99.90;;;;;;6277316;28;20501;-76
2023/10/20 08:41:13;;;;;;;7.57;3.92;;;14.80;99.90;;;;;;6272585;28;20502;-77
2023/10/20 08:44:16;;;;;;;6.55;4.05;;;14.80;99.90;;;;;;6270861;28;20048;-76
2023/10/20 08:47:19;;;;;;;8.30;3.78;;;14.90;99.90;;;;;;6278492;28;20052;-76
2023/10/20 08:50:23;;;;;;;4.95;3.55;;;15.00;99.90;;;;;;6278995;28;20136;-76
2023/10/20 08:53:27;;;;;;;4.55;3.65;;;15.00;99.90;;;;;;6278623;28;20067;-79
2023/10/20 08:56:29;;;;;;;10.13;4.65;;;15.10;99.90;;;;;;6286687;28;20048;-78
2023/10/20 08:59:31;;;;;;;4.60;3.40;;;15.10;99.90;;;;;;6277951;28;20055;-77
2023/10/20 09:02:37;;;;;;;4.53;3.80;;;15.10;99.90;;;;;;6278339;28;20098;-77
2023/10/20 09:05:40;;;;;;;5.57;2.92;;;15.20;99.90;;;;;;6287036;28;20399;-77
2023/10/20 09:08:43;;;;;;;4.82;3.58;;;15.30;99.90;;;;;;6278213;28;20513;-76
2023/10/20 09:11:45;;;;;;;4.57;2.63;;;15.40;99.90;;;;;;6281923;28;20179;-76
2023/10/20 09:14:46;;;;;;;6.13;3.45;;;15.40;99.90;;;;;;6276438;28;20434;-76
2023/10/20 09:17:54;;;;;;;4.30;3.60;;;15.50;99.90;;;;;;6270253;28;20075;-76
2023/10/20 09:21:04;;;;;;;3.55;3.17;;;15.60;99.90;;;;;;6274906;28;20044;-77
2023/10/20 09:24:08;;;;;;;4.13;3.08;;;15.70;99.90;;;;;;6275184;28;20049;-78
2023/10/20 09:27:11;;;;;;;5.32;3.80;;;15.80;99.90;;;;;;6275452;28;20056;-76
2023/10/20 09:30:15;;;;;;;4.93;3.20;;;15.80;99.90;;;;;;6290440;28;20051;-76
2023/10/20 09:33:17;;;;;;;3.95;3.38;;;15.90;99.90;;;;;;6282449;28;20518;-76
2023/10/20 09:36:22;;;;;;;8.05;5.78;;;16.00;99.90;;;;;;6284536;28;20090;-75
2023/10/20 09:39:34;;;;;;;4.25;2.75;;;16.10;99.90;;;;;;6313695;28;20048;-76
2023/10/20 09:42:46;;;;;;;4.65;3.42;;;16.20;99.90;;;;;;6299405;28;20398;-77
2023/10/20 09:45:52;;;;;;;7.50;3.45;;;16.30;99.90;;;;;;6299773;28;20398;-79
2023/10/20 09:49:00;;;;;;;5.55;3.55;;;16.40;99.90;;;;;;6298978;28;20047;-77
2023/10/20 09:52:05;;;;;;;;;;;16.50;99.90;;;;;;6297595;28;20044;-77
2023/10/20 09:55:07;;;;;;;3.78;2.78;;;16.50;99.90;;;;;;6299054;28;19924;-77
2023/10/20 09:58:09;;;;;;;4.13;3.38;;;16.60;99.90;;;;;;6299395;28;20051;-76
2023/10/20 10:01:14;;;;;;;5.28;4.07;;;16.60;99.90;;;;;;6298713;28;20052;-76
2023/10/20 10:04:23;;;;;;;5.93;4.05;;;16.50;99.90;;;;;;6298780;28;20571;-77
2023/10/20 10:07:29;;;;;;;5.28;4.22;;;16.50;99.90;;;;;;6298600;28;20048;-78
2023/10/20 10:10:32;;;;;;;7.93;3.28;;;16.40;99.90;;;;;;6299252;28;20048;-76
2023/10/20 10:13:35;;;;;;;3.58;3.00;;;16.40;99.90;;;;;;6299626;28;20045;-76
2023/10/20 10:16:48;;;;;;;5.22;3.70;;;16.40;99.90;;;;;;6298545;28;20402;-79
2023/10/20 10:19:51;;;;;;;6.43;4.88;;;16.40;99.90;;;;;;6298520;28;20045;-76
2023/10/20 10:23:01;;;;;;;6.30;4.88;;;16.50;99.90;;;;;;6298251;28;20517;-79
2023/10/20 10:26:13;;;;;;;5.35;4.85;;;16.50;99.90;;;;;;6299277;28;20052;-77
2023/10/20 10:29:15;;;;;;;6.68;5.13;;;16.60;99.90;;;;;;6297943;28;20709;-78
2023/10/20 10:32:18;;;;;;;4.95;4.43;;;16.60;99.90;;;;;;6298074;28;20052;-78
2023/10/20 10:35:20;;;;;;;6.55;5.40;;;16.70;99.90;;;;;;6298301;28;20056;-76
2023/10/20 10:38:27;;;;;;;7.65;5.53;;;16.80;99.90;;;;;;6298603;28;20452;-76
2023/10/20 10:41:30;;;;;;;7.38;5.10;;;17.20;99.90;;;;;;6298032;28;20044;-76
2023/10/20 10:44:34;;;;;;;8.27;6.32;;;17.50;99.90;;;;;;6297927;28;20441;-76
2023/10/20 10:47:35;;;;;;;6.78;5.18;;;17.90;99.90;;;;;;6297639;28;20510;-77
2023/10/20 10:50:39;;;;;;;6.93;4.88;;;18.40;99.90;;;;;;6309633;28;20061;-78
2023/10/20 10:53:43;;;;;;;6.30;3.75;;;18.60;99.90;;;;;;6299840;28;20056;-76
2023/10/20 10:56:46;;;;;;;4.38;3.10;;;18.80;99.90;;;;;;6297596;28;20476;-76
2023/10/20 10:59:48;;;;;;;2.67;2.47;;;19.00;99.90;;;;;;6297912;28;20044;-77
2023/10/20 11:02:50;;;;;;;4.15;2.22;;;19.20;99.90;;;;;;6297529;28;20047;-77
2023/10/20 11:05:52;;;;;;;1.90;1.70;;;19.20;99.90;;;;;;6298372;28;20052;-77
2023/10/20 11:08:55;;;;;;;2.38;1.42;;;19.20;99.90;;;;;;6297160;28;20040;-77
2023/10/20 11:11:57;;;;;;;1.38;1.25;;;19.20;99.90;;;;;;6297655;28;20056;-76
2023/10/20 11:15:01;;;;;;;1.48;1.27;;;19.70;99.90;;;;;;6297232;28;20048;-76
2023/10/20 11:18:05;;;;;;;6.78;4.05;;;19.80;99.90;;;;;;6297110;28;20123;-76
2023/10/20 11:21:11;;;;;;;1.83;1.60;;;19.80;99.90;;;;;;6289141;28;20679;-76
2023/10/20 11:24:25;;;;;;;0.85;0.77;;;19.70;99.90;;;;;;6271994;28;20120;-76
2023/10/20 11:27:27;;;;;;;0.70;0.70;;;20.10;99.90;;;;;;6271891;28;20048;-76
2023/10/20 11:30:31;;;;;;;1.10;1.00;;;20.20;99.90;;;;;;6272260;28;20517;-77
2023/10/20 11:33:32;;;;;;;1.10;0.70;;;20.50;99.90;;;;;;6279909;28;20520;-76
2023/10/20 11:36:34;;;;;;;2.05;1.52;;;20.50;99.90;;;;;;6271622;28;20049;-76
2023/10/20 11:39:37;;;;;;;0.82;0.70;;;20.40;99.90;;;;;;6271618;28;20045;-76
2023/10/20 11:42:39;;;;;;;0.50;0.50;;;20.50;99.90;;;;;;6278964;28;20049;-76
2023/10/20 11:45:40;;;;;;;1.65;1.08;;;20.70;99.90;;;;;;6272162;28;20053;-77
2023/10/20 11:48:42;;;;;;;0.57;0.55;;;21.10;99.90;;;;;;6272573;28;20045;-77
2023/10/20 11:51:44;;;;;;;1.20;0.93;;;21.10;99.90;;;;;;6281071;28;20037;-77
2023/10/20 11:54:48;;;;;;;0.60;0.55;;;21.00;99.90;;;;;;6275283;28;20049;-77
2023/10/20 11:57:50;;;;;;;1.10;1.00;;;20.80;99.90;;;;;;6280372;28;20127;-77
2023/10/20 12:00:52;;;;;;;1.48;0.63;;;20.60;99.90;;;;;;6274030;28;20053;-77
2023/10/20 12:03:53;;;;;;;1.95;0.70;;;20.40;99.90;;;;;;6284573;28;20056;-77
2023/10/20 12:06:55;;;;;;;0.50;0.50;;;20.40;99.90;;;;;;6273007;28;20052;-75
2023/10/20 12:09:58;;;;;;;0.80;0.50;;;20.10;99.90;;;;;;6275779;28;20052;-77
2023/10/20 12:13:02;;;;;;;0.93;0.80;;;19.80;99.90;;;;;;6277951;28;20389;-77
2023/10/20 12:16:08;;;;;;;0.80;0.68;;;19.60;99.90;;;;;;6285562;28;20063;-76
2023/10/20 12:19:09;;;;;;;0.63;0.63;;;19.50;99.90;;;;;;6291852;28;20041;-79
2023/10/20 12:22:11;;;;;;;1.10;0.65;;;19.50;99.90;;;;;;6280051;28;20040;-77
2023/10/20 12:25:14;;;;;;;0.98;0.32;;;19.50;99.90;;;;;;6273350;28;20063;-76
2023/10/20 12:28:16;;;;;;;0.47;0.43;;;19.50;99.90;;;;;;6288489;28;20382;-78
2023/10/20 12:31:18;;;;;;;0.57;0.52;;;19.50;99.90;;;;;;6283201;28;20497;-78
2023/10/20 12:34:20;;;;;;;0.40;0.40;;;19.50;99.90;;;;;;6286927;28;20417;-77
2023/10/20 12:37:22;;;;;;;0.40;0.40;;;19.50;99.90;;;;;;6287868;28;20053;-76
2023/10/20 12:40:26;;;;;;;1.40;0.40;;;19.60;99.90;;;;;;6283782;28;20051;-78
2023/10/20 12:43:27;;;;;;;0.25;0.20;;;19.50;99.90;;;;;;6287873;28;20044;-77
2023/10/20 12:46:29;;;;;;;1.77;0.50;;;19.40;99.90;;;;;;6287746;28;20051;-77
2023/10/20 12:49:31;;;;;;;0.40;0.40;;;19.30;99.90;;;;;;6283040;28;20048;-78
2023/10/20 12:52:33;;;;;;;0.85;0.40;;;19.20;99.90;;;;;;6285189;28;20041;-76
2023/10/20 12:55:36;;;;;;;0.20;0.20;;;19.10;99.90;;;;;;6277514;28;20171;-77
2023/10/20 12:58:38;;;;;;;0.52;0.50;;;18.90;99.90;;;;;;6276901;28;20048;-77
2023/10/20 13:01:39;;;;;;;3.53;0.70;;;18.80;99.90;;;;;;6273234;28;20045;-76
2023/10/20 13:04:43;;;;;;;0.65;0.50;;;18.70;99.90;;;;;;6281897;28;20076;-77
2023/10/20 13:07:45;;;;;;;0.60;0.60;;;18.50;99.90;;;;;;6272757;28;20055;-77
2023/10/20 13:10:48;;;;;;;0.40;0.40;;;18.40;99.90;;;;;;6275122;28;20045;-78
2023/10/20 13:13:51;;;;;;;0.30;0.30;;;18.30;99.90;;;;;;6282397;28;20166;-78
2023/10/20 13:16:53;;;;;;;0.50;0.40;;;18.40;99.90;;;;;;6296447;28;20047;-78
2023/10/20 13:19:54;;;;;;;1.10;0.85;;;18.50;99.90;;;;;;6281718;28;20045;-77
2023/10/20 13:22:56;;;;;;;0.63;0.32;;;18.50;99.90;;;;;;6279066;28;20045;-77
2023/10/20 13:26:04;;;;;;;0.38;0.30;;;18.40;99.90;;;;;;6280303;28;20049;-78
2023/10/20 13:29:06;;;;;;;0.75;0.50;;;18.40;99.90;;;;;;6283902;28;20044;-77
2023/10/20 13:32:07;;;;;;;0.30;0.30;;;18.40;99.90;;;;;;6285579;28;20048;-77
2023/10/20 13:35:10;;;;;;;1.35;0.50;;;18.20;99.90;;;;;;6279811;28;20047;-78
2023/10/20 13:38:12;;;;;;;0.50;0.40;;;18.20;99.90;;;;;;6285746;28;20401;-76
2023/10/20 13:41:15;;;;;;;0.40;0.40;;;18.10;99.90;;;;;;6285076;28;20414;-75
2023/10/20 13:44:16;;;;;;;0.75;0.30;;;18.00;99.90;;;;;;6286311;28;20136;-78
2023/10/20 13:47:19;;;;;;;1.80;0.45;;;18.00;99.90;;;;;;6290068;28;20186;-78
2023/10/20 13:50:20;;;;;;;0.38;0.38;;;18.00;99.90;;;;;;6287891;28;20044;-78
2023/10/20 13:53:24;;;;;;;0.22;0.20;;;17.90;99.90;;;;;;6283488;28;20043;-77
2023/10/20 13:56:27;;;;;;;0.70;0.30;;;17.80;99.90;;;;;;6285773;28;20045;-76
2023/10/20 13:59:29;;;;;;;0.50;0.40;;;17.70;99.90;;;;;;6280597;28;20186;-78
2023/10/20 14:02:31;;;;;;;0.65;0.60;;;17.60;99.90;;;;;;6281138;28;20047;-77
2023/10/20 14:05:32;;;;;;;2.85;0.60;;;17.50;99.90;;;;;;6281858;28;20049;-77
2023/10/20 14:08:35;;;;;;;0.73;0.73;;;17.50;99.90;;;;;;6291624;28;20045;-77
2023/10/20 14:11:40;;;;;;;0.55;0.38;;;17.40;99.90;;;;;;6284870;28;20045;-78
2023/10/20 14:14:42;;;;;;;0.40;0.40;;;17.40;99.90;;;;;;6293173;28;20048;-77
2023/10/20 14:17:44;;;;;;;0.40;0.22;;;17.30;99.90;;;;;;6292756;28;20055;-78
2023/10/20 14:20:46;;;;;;;0.20;0.20;;;17.30;99.90;;;;;;6293751;28;20124;-78
2023/10/20 14:23:48;;;;;;;0.80;0.20;;;17.20;99.90;;;;;;6283641;28;20041;-76
2023/10/20 14:26:51;;;;;;;0.85;0.68;;;17.10;99.90;;;;;;6282871;28;20110;-77
2023/10/20 14:29:53;;;;;;;1.10;0.82;;;17.10;99.90;;;;;;6287010;28;20088;-76
2023/10/20 14:32:54;;;;;;;1.88;0.30;;;17.10;99.90;;;;;;6280370;28;20053;-78
2023/10/20 14:35:57;;;;;;;0.50;0.50;;;17.00;99.90;;;;;;6285230;28;20515;-78
2023/10/20 14:38:59;;;;;;;1.00;1.00;;;17.10;99.90;;;;;;6284489;28;20049;-77
2023/10/20 14:42:03;;;;;;;0.45;0.45;;;17.10;99.90;;;;;;6285078;28;20056;-79
2023/10/20 14:45:06;;;;;;;0.43;0.30;;;17.10;99.90;;;;;;6285588;28;20053;-78
2023/10/20 14:48:08;;;;;;;0.20;0.20;;;17.10;99.90;;;;;;6288949;28;20452;-77
2023/10/20 14:51:10;;;;;;;0.40;0.40;;;17.00;99.90;;;;;;6285510;28;20044;-78
2023/10/20 14:54:13;;;;;;;5.10;0.77;;;17.00;99.90;;;;;;6287782;28;20056;-78
2023/10/20 14:57:16;;;;;;;0.30;0.30;;;16.90;99.90;;;;;;6283175;28;20040;-77
2023/10/20 15:00:18;;;;;;;0.35;0.35;;;16.80;99.90;;;;;;6283930;28;20433;-78
2023/10/20 15:03:20;;;;;;;0.38;0.38;;;16.70;99.90;;;;;;6278845;28;20535;-76
2023/10/20 15:06:22;;;;;;;1.80;0.70;;;16.70;99.90;;;;;;6286566;28;20048;-79
2023/10/20 15:09:24;;;;;;;1.48;0.40;;;16.60;99.90;;;;;;6289399;28;20413;-76
2023/10/20 15:12:27;;;;;;;1.85;0.55;;;16.60;99.90;;;;;;6286084;28;20037;-78
2023/10/20 15:15:31;;;;;;;0.57;0.40;;;16.60;99.90;;;;;;6286373;28;20047;-77
2023/10/20 15:18:32;;;;;;;0.65;0.50;;;16.50;99.90;;;;;;6288286;28;20489;-77
2023/10/20 15:21:34;;;;;;;0.30;0.30;;;16.50;99.90;;;;;;6292632;28;20051;-76
2023/10/20 15:24:36;;;;;;;0.30;0.30;;;16.50;99.90;;;;;;6287854;28;20043;-77
2023/10/20 15:27:39;;;;;;;0.88;0.40;;;16.40;99.90;;;;;;6282542;28;20048;-77
2023/10/20 15:30:41;;;;;;;2.20;0.82;;;16.40;99.90;;;;;;6288292;28;20409;-77
2023/10/20 15:33:43;;;;;;;2.20;0.30;;;16.40;99.90;;;;;;6282235;28;20055;-77
2023/10/20 15:36:47;;;;;;;0.40;0.40;;;16.30;99.90;;;;;;6283263;28;20041;-77
2023/10/20 15:39:48;;;;;;;0.70;0.55;;;16.40;99.90;;;;;;6288896;28;20064;-75
2023/10/20 15:42:52;;;;;;;0.70;0.43;;;16.30;99.90;;;;;;6284859;28;20044;-78
2023/10/20 15:45:54;;;;;;;1.90;1.52;;;16.30;99.90;;;;;;6290358;28;20074;-78
2023/10/20 15:48:56;;;;;;;0.40;0.30;;;16.20;99.90;;;;;;6273947;28;20041;-77
2023/10/20 15:51:58;;;;;;;2.47;0.40;;;16.20;99.90;;;;;;6273901;28;20045;-77
2023/10/20 15:55:03;;;;;;;1.50;1.05;;;16.10;99.90;;;;;;6277104;28;20052;-78
2023/10/20 15:58:06;;;;;;;0.75;0.47;;;16.10;99.90;;;;;;6275992;28;20053;-78
2023/10/20 16:01:10;;;;;;;0.40;0.40;;;16.10;99.90;;;;;;6273373;28;20049;-77
2023/10/20 16:04:12;;;;;;;0.40;0.40;;;16.10;99.90;;;;;;6275667;28;20045;-77
2023/10/20 16:07:14;;;;;;;0.25;0.25;;;16.10;99.90;;;;;;6273938;28;20037;-77
2023/10/20 16:10:15;;;;;;;1.38;0.45;;;16.10;99.90;;;;;;6276351;28;20425;-77